Time;durP1;ratioP1;P1;durP2;ratioP2;P2;SDS_P1;SDS_P2;PMS_P1;PMS_P2;Temp;Humidity;BMP_temperature;BMP_pressure;BME280_temperature;BME280_humidity;BME280_pressure;Samples;Min_cycle;Max_cycle;Signal;HPM_P1;HPM_P2
2022/09/10 00:00:42;;;;;;;2.27;1.10;;;13.90;99.90;;;;;;5073427;28;20417;-88
2022/09/10 00:03:10;;;;;;;1.73;1.07;;;13.80;99.90;;;;;;5073181;28;20171;-88
2022/09/10 00:05:45;;;;;;;2.83;1.40;;;13.70;99.90;;;;;;5073414;28;20183;-88
2022/09/10 00:08:10;;;;;;;2.23;1.00;;;13.70;99.90;;;;;;5072568;28;20470;-87
2022/09/10 00:10:47;;;;;;;1.50;0.77;;;13.60;99.90;;;;;;5054903;28;20495;-87
2022/09/10 00:13:15;;;;;;;3.13;1.23;;;13.60;99.90;;;;;;5055256;28;20570;-88
2022/09/10 00:15:44;;;;;;;1.43;0.80;;;13.50;99.90;;;;;;5073029;28;20844;-88
2022/09/10 00:18:11;;;;;;;1.23;0.97;;;13.50;99.90;;;;;;5073265;28;20829;-87
2022/09/10 00:20:46;;;;;;;2.20;1.07;;;13.50;99.90;;;;;;5060106;28;20893;-88
2022/09/10 00:23:15;;;;;;;2.10;0.90;;;13.40;99.90;;;;;;5075713;28;20432;-87
2022/09/10 00:25:41;;;;;;;2.80;2.03;;;13.50;99.90;;;;;;5080782;28;20427;-89
2022/09/10 00:28:08;;;;;;;1.73;1.00;;;13.50;99.90;;;;;;5080185;28;20475;-88
2022/09/10 00:30:39;;;;;;;2.30;1.13;;;13.50;99.90;;;;;;5063189;28;20573;-88
2022/09/10 00:33:04;;;;;;;3.07;1.03;;;13.50;99.90;;;;;;5064765;28;20939;-86
2022/09/10 00:35:32;;;;;;;3.40;1.00;;;13.70;99.90;;;;;;5064129;28;20417;-88
2022/09/10 00:37:58;;;;;;;2.60;1.77;;;13.80;99.90;;;;;;5076790;28;20295;-87
2022/09/10 00:40:24;;;;;;;2.60;1.20;;;13.80;99.90;;;;;;5072170;28;20521;-87
2022/09/10 00:42:49;;;;;;;2.10;1.20;;;13.80;99.90;;;;;;5078378;28;20182;-87
2022/09/10 00:45:22;;;;;;;2.73;1.10;;;13.90;99.90;;;;;;5097180;28;20415;-89
2022/09/10 00:47:50;;;;;;;2.73;1.00;;;14.00;99.90;;;;;;5077995;28;20682;-90
2022/09/10 00:50:29;;;;;;;3.33;1.47;;;14.00;99.90;;;;;;5077973;28;20974;-87
2022/09/10 00:53:00;;;;;;;2.00;1.27;;;14.00;99.90;;;;;;5096229;28;20475;-90
2022/09/10 00:55:26;;;;;;;2.97;1.90;;;14.00;99.90;;;;;;5077869;28;20922;-87
2022/09/10 00:57:57;;;;;;;3.77;2.13;;;14.10;99.90;;;;;;5079464;28;20418;-89
2022/09/10 01:00:23;;;;;;;2.03;1.20;;;14.10;99.90;;;;;;5067114;28;20785;-89
2022/09/10 01:02:48;;;;;;;2.90;1.80;;;14.10;99.90;;;;;;5056770;28;20419;-87
2022/09/10 01:05:16;;;;;;;2.20;1.47;;;14.10;99.90;;;;;;5074912;28;20177;-88
2022/09/10 01:07:42;;;;;;;1.70;1.30;;;14.10;99.90;;;;;;5062143;28;20217;-88
2022/09/10 01:10:16;;;;;;;3.80;1.37;;;14.10;99.90;;;;;;5075354;28;20405;-90
2022/09/10 01:13:12;;;;;;;2.03;1.00;;;14.00;99.90;;;;;;5057822;28;20515;-91
2022/09/10 01:15:46;;;;;;;2.60;1.50;;;14.00;99.90;;;;;;5053730;28;20450;-88
2022/09/10 01:18:24;;;;;;;1.73;1.17;;;14.00;99.90;;;;;;5074530;28;20496;-89
2022/09/10 01:21:18;;;;;;;3.13;1.77;;;14.00;99.90;;;;;;5075478;28;20414;-87
2022/09/10 01:24:27;;;;;;;2.17;0.90;;;13.90;99.90;;;;;;5056889;28;20993;-87
2022/09/10 01:27:21;;;;;;;2.10;1.53;;;13.90;99.90;;;;;;5075177;28;20475;-85
2022/09/10 01:30:06;;;;;;;1.20;0.93;;;13.90;99.90;;;;;;5057112;28;20476;-89
2022/09/10 01:32:39;;;;;;;1.70;1.20;;;13.90;99.90;;;;;;5074470;28;20416;-88
2022/09/10 01:35:14;;;;;;;1.83;1.73;;;13.90;99.90;;;;;;5075518;28;20471;-89
2022/09/10 01:37:43;;;;;;;1.50;0.90;;;13.90;99.90;;;;;;5074801;28;20413;-87
2022/09/10 01:40:09;;;;;;;4.67;1.30;;;14.00;99.90;;;;;;5075253;28;20422;-89
2022/09/10 01:42:38;;;;;;;2.13;1.40;;;14.00;99.90;;;;;;5075091;28;20441;-88
2022/09/10 01:45:10;;;;;;;2.37;1.20;;;14.00;99.90;;;;;;5073883;28;20826;-89
2022/09/10 01:47:48;;;;;;;1.87;1.33;;;14.00;99.90;;;;;;5074471;28;20530;-88
2022/09/10 01:50:41;;;;;;;2.13;1.53;;;14.00;99.90;;;;;;5074836;28;20404;-90
2022/09/10 01:53:23;;;;;;;3.53;1.63;;;14.00;99.90;;;;;;5074942;28;20555;-90
2022/09/10 01:56:09;;;;;;;2.33;1.20;;;14.00;99.90;;;;;;5075047;28;20405;-90
2022/09/10 01:58:39;;;;;;;4.53;2.30;;;14.00;99.90;;;;;;5073732;28;20422;-90
2022/09/10 02:01:12;;;;;;;4.77;1.60;;;14.00;99.90;;;;;;5075044;28;20464;-88
2022/09/10 02:03:40;;;;;;;2.30;1.40;;;14.10;99.90;;;;;;5073816;28;20939;-90
2022/09/10 02:06:10;;;;;;;2.40;1.57;;;14.10;99.90;;;;;;5075294;28;20397;-89
2022/09/10 02:08:38;;;;;;;2.60;2.40;;;14.10;99.90;;;;;;5074884;28;20425;-90
2022/09/10 02:11:08;;;;;;;1.90;1.10;;;14.10;99.90;;;;;;5074634;28;20404;-89
2022/09/10 02:13:34;;;;;;;1.87;1.13;;;14.10;99.90;;;;;;5075076;28;20417;-86
2022/09/10 02:16:02;;;;;;;2.73;2.00;;;14.10;99.90;;;;;;5074830;28;20482;-90
2022/09/10 02:18:31;;;;;;;4.87;2.40;;;14.00;99.90;;;;;;5074855;28;20442;-86
2022/09/10 02:20:59;;;;;;;3.20;1.70;;;14.00;99.90;;;;;;5074910;28;20413;-88
2022/09/10 02:23:34;;;;;;;2.70;2.33;;;14.00;99.90;;;;;;5072733;28;20944;-87
2022/09/10 02:26:00;;;;;;;2.43;1.80;;;14.00;99.90;;;;;;5074417;28;20414;-87
2022/09/10 02:28:29;;;;;;;3.90;2.23;;;14.00;99.90;;;;;;5074160;28;20946;-87
2022/09/10 02:30:54;;;;;;;1.97;1.50;;;14.00;99.90;;;;;;5090357;28;20219;-86
2022/09/10 02:33:20;;;;;;;3.27;2.37;;;14.00;99.90;;;;;;5075717;28;20940;-86
2022/09/10 02:35:49;;;;;;;2.53;2.30;;;14.00;99.90;;;;;;5075821;28;20305;-86
2022/09/10 02:38:15;;;;;;;2.97;2.50;;;14.00;99.90;;;;;;5094664;28;20417;-86
2022/09/10 02:40:42;;;;;;;3.10;2.50;;;14.00;99.90;;;;;;5094704;28;20412;-86
2022/09/10 02:43:07;;;;;;;4.47;2.27;;;14.00;99.90;;;;;;5094825;28;20416;-86
2022/09/10 02:45:33;;;;;;;3.17;1.90;;;14.00;99.90;;;;;;5076567;28;20763;-86
2022/09/10 02:47:59;;;;;;;3.27;2.10;;;14.00;99.90;;;;;;5094470;28;20212;-85
2022/09/10 02:50:24;;;;;;;5.93;1.70;;;14.00;99.90;;;;;;5094504;28;20211;-85
2022/09/10 02:52:50;;;;;;;3.23;1.50;;;14.00;99.90;;;;;;5094081;28;20230;-85
2022/09/10 02:55:16;;;;;;;3.70;2.00;;;14.00;99.90;;;;;;5076164;28;20219;-86
2022/09/10 02:57:42;;;;;;;3.07;2.00;;;14.00;99.90;;;;;;5094219;28;20232;-85
2022/09/10 03:00:09;;;;;;;2.83;2.10;;;14.00;99.90;;;;;;5075951;28;20886;-86
2022/09/10 03:02:35;;;;;;;3.67;2.07;;;14.00;99.90;;;;;;5075344;28;20425;-86
2022/09/10 03:05:03;;;;;;;3.40;2.17;;;14.00;99.90;;;;;;5094464;28;20418;-86
2022/09/10 03:07:33;;;;;;;3.20;2.37;;;14.00;99.90;;;;;;5089762;28;20510;-89
2022/09/10 03:09:58;;;;;;;3.87;2.03;;;14.00;99.90;;;;;;5085055;28;20441;-85
2022/09/10 03:12:24;;;;;;;2.70;2.30;;;14.00;99.90;;;;;;5104257;28;20419;-86
2022/09/10 03:14:49;;;;;;;2.40;2.07;;;14.00;99.90;;;;;;5085461;28;20173;-85
2022/09/10 03:17:15;;;;;;;2.40;2.00;;;14.00;99.90;;;;;;5085970;28;20173;-88
2022/09/10 03:19:44;;;;;;;7.63;1.80;;;14.00;99.90;;;;;;5095163;28;20319;-86
2022/09/10 03:22:10;;;;;;;5.10;2.67;;;14.00;99.90;;;;;;5094319;28;20407;-86
2022/09/10 03:24:35;;;;;;;4.47;2.30;;;14.00;99.90;;;;;;5093553;28;20498;-86
2022/09/10 03:27:01;;;;;;;2.80;1.90;;;14.00;99.90;;;;;;5093574;28;21026;-86
2022/09/10 03:29:28;;;;;;;3.83;2.00;;;14.00;99.90;;;;;;5093440;28;20712;-86
2022/09/10 03:31:54;;;;;;;3.17;1.70;;;14.00;99.90;;;;;;5075744;28;20173;-86
2022/09/10 03:34:20;;;;;;;3.10;2.33;;;14.00;99.90;;;;;;5093756;28;20419;-85
2022/09/10 03:36:46;;;;;;;2.80;2.20;;;14.00;99.90;;;;;;5074790;28;20168;-89
2022/09/10 03:39:13;;;;;;;2.70;1.90;;;14.00;99.90;;;;;;5093081;28;20971;-85
2022/09/10 03:41:38;;;;;;;6.70;2.40;;;13.90;99.90;;;;;;5075614;28;20229;-85
2022/09/10 03:44:05;;;;;;;2.63;1.70;;;13.90;99.90;;;;;;5075353;28;20513;-88
2022/09/10 03:46:31;;;;;;;4.80;2.43;;;14.00;99.90;;;;;;5093333;28;20611;-87
2022/09/10 03:48:58;;;;;;;2.60;2.30;;;13.90;99.90;;;;;;5075233;28;20507;-87
2022/09/10 03:51:23;;;;;;;3.70;1.97;;;13.90;99.90;;;;;;5093088;28;20401;-87
2022/09/10 03:53:49;;;;;;;3.50;2.57;;;14.00;99.90;;;;;;5075075;28;20426;-87
2022/09/10 03:56:18;;;;;;;4.63;3.10;;;13.90;99.90;;;;;;5093289;28;20233;-85
2022/09/10 03:59:04;;;;;;;3.07;2.37;;;13.90;99.90;;;;;;5093316;28;20173;-85
2022/09/10 04:01:30;;;;;;;3.60;2.70;;;13.90;99.90;;;;;;5092984;28;20462;-86
2022/09/10 04:03:55;;;;;;;3.17;2.70;;;13.90;99.90;;;;;;5092981;28;20458;-85
2022/09/10 04:06:21;;;;;;;2.90;2.40;;;13.90;99.90;;;;;;5074709;28;20207;-88
2022/09/10 04:08:51;;;;;;;3.60;2.97;;;13.90;99.90;;;;;;5092900;28;20421;-90
2022/09/10 04:11:19;;;;;;;2.63;1.87;;;13.90;99.90;;;;;;5092998;28;20182;-90
2022/09/10 04:13:48;;;;;;;2.97;2.37;;;13.90;99.90;;;;;;5094118;28;20510;-85
2022/09/10 04:16:15;;;;;;;2.57;2.00;;;13.90;99.90;;;;;;5096811;28;20420;-87
2022/09/10 04:18:41;;;;;;;2.43;2.23;;;13.90;99.90;;;;;;5097008;28;20402;-88
2022/09/10 04:21:07;;;;;;;3.47;1.97;;;13.90;99.90;;;;;;5096869;28;20493;-88
2022/09/10 04:23:42;;;;;;;2.23;1.93;;;13.80;99.90;;;;;;5078454;28;20506;-86
2022/09/10 04:26:16;;;;;;;2.93;2.63;;;13.90;99.90;;;;;;5078754;28;20176;-86
2022/09/10 04:28:42;;;;;;;3.40;2.23;;;13.80;99.90;;;;;;5079070;28;20921;-86
2022/09/10 04:31:09;;;;;;;2.20;1.67;;;13.80;99.90;;;;;;5097310;28;20576;-87
2022/09/10 04:33:35;;;;;;;2.80;2.27;;;13.80;99.90;;;;;;5097253;28;20411;-86
2022/09/10 04:36:02;;;;;;;3.00;1.43;;;13.80;99.90;;;;;;5078787;28;20907;-86
2022/09/10 04:38:31;;;;;;;3.00;2.33;;;13.80;99.90;;;;;;5078906;28;20424;-85
2022/09/10 04:40:58;;;;;;;2.47;1.50;;;13.80;99.90;;;;;;5097162;28;20944;-88
2022/09/10 04:43:24;;;;;;;3.73;1.97;;;13.80;99.90;;;;;;5078949;28;20414;-86
2022/09/10 04:45:54;;;;;;;3.30;2.63;;;13.80;99.90;;;;;;5078748;28;20419;-86
2022/09/10 04:48:20;;;;;;;1.90;0.70;;;13.90;99.90;;;;;;5096812;28;20557;-88
2022/09/10 04:50:49;;;;;;;1.70;1.47;;;13.90;99.90;;;;;;5097180;28;20409;-87
2022/09/10 04:53:15;;;;;;;3.30;1.77;;;13.90;99.90;;;;;;5078644;28;20519;-87
2022/09/10 04:55:42;;;;;;;4.50;2.03;;;13.90;99.90;;;;;;5097012;28;20406;-86
2022/09/10 04:58:08;;;;;;;6.10;1.70;;;13.90;99.90;;;;;;5078601;28;20471;-87
2022/09/10 05:00:33;;;;;;;2.67;1.30;;;14.00;99.90;;;;;;5096872;28;20758;-88
2022/09/10 05:02:59;;;;;;;2.07;1.63;;;13.90;99.90;;;;;;5096545;28;20421;-87
2022/09/10 05:05:25;;;;;;;3.27;1.33;;;13.90;99.90;;;;;;5096267;28;20625;-86
2022/09/10 05:07:52;;;;;;;2.37;1.50;;;13.90;99.90;;;;;;5077527;28;20249;-89
2022/09/10 05:10:20;;;;;;;3.00;1.10;;;13.90;99.90;;;;;;5096321;28;20183;-87
2022/09/10 05:12:47;;;;;;;2.10;1.77;;;13.90;99.90;;;;;;5096346;28;20431;-86
2022/09/10 05:15:12;;;;;;;2.90;1.70;;;13.80;99.90;;;;;;5077812;28;20415;-86
2022/09/10 05:17:38;;;;;;;2.30;1.40;;;13.80;99.90;;;;;;5095923;28;20510;-87
2022/09/10 05:20:06;;;;;;;1.63;1.20;;;13.90;99.90;;;;;;5096237;28;20166;-85
2022/09/10 05:22:33;;;;;;;2.90;1.73;;;13.90;99.90;;;;;;5077715;28;20453;-86
2022/09/10 05:24:59;;;;;;;4.13;1.60;;;13.90;99.90;;;;;;5094889;28;21017;-86
2022/09/10 05:27:24;;;;;;;3.70;2.70;;;14.00;99.90;;;;;;5077585;28;20477;-86
2022/09/10 05:29:50;;;;;;;5.10;1.97;;;14.00;99.90;;;;;;5095540;28;20220;-86
2022/09/10 05:32:15;;;;;;;3.43;1.53;;;14.10;99.90;;;;;;5094707;28;20244;-87
2022/09/10 05:34:41;;;;;;;15.13;3.50;;;14.10;99.90;;;;;;5095794;28;20167;-87
2022/09/10 05:37:07;;;;;;;2.10;1.40;;;14.10;99.90;;;;;;5095328;28;20249;-85
2022/09/10 05:39:33;;;;;;;3.07;2.77;;;14.10;99.90;;;;;;5095624;28;20223;-87
2022/09/10 05:42:00;;;;;;;2.87;1.63;;;14.20;99.90;;;;;;5077104;28;20781;-86
2022/09/10 05:44:26;;;;;;;2.80;2.03;;;14.20;99.90;;;;;;5095464;28;20218;-88
2022/09/10 05:46:51;;;;;;;2.93;2.10;;;14.20;99.90;;;;;;5077151;28;20542;-87
2022/09/10 05:49:17;;;;;;;2.60;2.33;;;14.30;99.90;;;;;;5095170;28;20537;-86
2022/09/10 05:51:42;;;;;;;4.53;1.63;;;14.30;99.90;;;;;;5094779;28;20170;-86
2022/09/10 05:54:11;;;;;;;3.07;2.50;;;14.30;99.90;;;;;;5095340;28;20244;-86
2022/09/10 05:56:36;;;;;;;3.53;2.57;;;14.40;99.90;;;;;;5095262;28;20190;-87
2022/09/10 05:59:09;;;;;;;4.17;2.23;;;14.50;99.90;;;;;;5095144;28;20905;-85
2022/09/10 06:01:35;;;;;;;2.47;2.17;;;14.50;99.90;;;;;;5095501;28;20210;-86
2022/09/10 06:04:01;;;;;;;2.53;1.90;;;14.60;99.90;;;;;;5095425;28;20826;-86
2022/09/10 06:06:27;;;;;;;2.90;2.10;;;14.70;99.90;;;;;;5095955;28;20458;-92
2022/09/10 06:08:55;;;;;;;3.33;2.37;;;14.80;99.90;;;;;;5095597;28;20423;-86
2022/09/10 06:11:24;;;;;;;3.57;2.57;;;14.80;99.90;;;;;;5096288;28;20534;-86
2022/09/10 06:13:49;;;;;;;6.00;2.40;;;14.70;99.90;;;;;;5076606;28;20936;-85
2022/09/10 06:16:16;;;;;;;5.00;3.70;;;14.90;99.90;;;;;;5095152;28;20409;-85
2022/09/10 06:18:45;;;;;;;3.50;2.70;;;14.90;99.90;;;;;;5094735;28;20249;-86
2022/09/10 06:21:14;;;;;;;2.80;2.17;;;15.00;99.90;;;;;;5094546;28;20446;-90
2022/09/10 06:23:39;;;;;;;3.03;2.43;;;15.00;99.90;;;;;;5095077;28;20425;-90
2022/09/10 06:26:15;;;;;;;2.80;2.27;;;15.10;99.90;;;;;;5077006;28;20439;-86
2022/09/10 06:28:42;;;;;;;2.20;1.63;;;15.20;99.90;;;;;;5094931;28;20175;-87
2022/09/10 06:31:10;;;;;;;2.27;1.97;;;15.20;99.90;;;;;;5093943;28;20463;-86
2022/09/10 06:33:35;;;;;;;2.17;1.70;;;15.10;99.90;;;;;;5077381;28;20788;-88
2022/09/10 06:36:02;;;;;;;3.30;2.50;;;15.10;99.90;;;;;;5077095;28;20422;-91
2022/09/10 06:38:29;;;;;;;2.80;2.57;;;15.10;99.90;;;;;;5094742;28;20171;-88
2022/09/10 06:40:59;;;;;;;2.80;2.00;;;15.10;99.90;;;;;;5077047;28;20973;-87
2022/09/10 06:43:25;;;;;;;3.80;1.67;;;15.10;99.90;;;;;;5094957;28;20425;-90
2022/09/10 06:45:54;;;;;;;4.60;2.30;;;15.20;99.90;;;;;;5068062;28;20882;-92
2022/09/10 06:48:26;;;;;;;2.57;1.90;;;15.30;99.90;;;;;;5077315;28;20212;-86
2022/09/10 06:50:56;;;;;;;2.50;2.13;;;15.40;99.90;;;;;;5090639;28;20411;-88
2022/09/10 06:53:23;;;;;;;3.40;2.23;;;15.50;99.90;;;;;;5083406;28;20420;-87
2022/09/10 06:55:50;;;;;;;2.90;2.07;;;15.60;99.90;;;;;;5056660;28;20412;-87
2022/09/10 06:58:22;;;;;;;3.27;2.37;;;15.70;99.90;;;;;;5056277;28;20921;-88
2022/09/10 07:00:48;;;;;;;2.33;2.13;;;15.80;99.90;;;;;;5074369;28;20415;-88
2022/09/10 07:03:18;;;;;;;2.27;1.93;;;15.80;99.90;;;;;;5074242;28;20421;-91
2022/09/10 07:05:44;;;;;;;3.27;2.30;;;15.80;99.90;;;;;;5056389;28;20931;-90
2022/09/10 07:08:12;;;;;;;2.40;2.00;;;15.70;99.90;;;;;;5056449;28;20472;-88
2022/09/10 07:10:39;;;;;;;2.90;2.07;;;15.80;99.90;;;;;;5074180;28;20417;-88
2022/09/10 07:13:05;;;;;;;2.13;1.80;;;15.80;99.90;;;;;;5056352;28;20419;-89
2022/09/10 07:15:31;;;;;;;2.00;1.77;;;15.90;99.90;;;;;;5074074;28;20926;-90
2022/09/10 07:17:57;;;;;;;2.90;2.33;;;15.90;99.90;;;;;;5056193;28;20425;-89
2022/09/10 07:20:24;;;;;;;2.03;1.50;;;15.80;99.90;;;;;;5056079;28;20421;-88
2022/09/10 07:22:54;;;;;;;1.63;0.97;;;15.90;99.90;;;;;;5058016;28;20175;-87
2022/09/10 07:25:21;;;;;;;3.27;1.73;;;15.90;99.90;;;;;;5083996;28;20958;-86
2022/09/10 07:27:49;;;;;;;2.40;2.10;;;16.00;99.90;;;;;;5055288;28;20475;-86
2022/09/10 07:30:16;;;;;;;1.70;1.40;;;16.00;99.90;;;;;;5073254;28;20544;-87
2022/09/10 07:32:42;;;;;;;1.83;1.50;;;15.90;99.90;;;;;;5073470;28;20443;-87
2022/09/10 07:35:08;;;;;;;2.10;1.80;;;16.00;99.90;;;;;;5073262;28;20928;-88
2022/09/10 07:37:34;;;;;;;2.63;0.90;;;16.10;99.90;;;;;;5072799;28;20229;-87
2022/09/10 07:40:03;;;;;;;2.20;1.80;;;16.20;99.90;;;;;;5055355;28;20543;-87
2022/09/10 07:42:28;;;;;;;2.43;1.50;;;16.20;99.90;;;;;;5073456;28;20413;-87
2022/09/10 07:44:54;;;;;;;2.70;1.77;;;16.20;99.90;;;;;;5073463;28;20398;-88
2022/09/10 07:47:19;;;;;;;2.10;1.87;;;16.30;99.90;;;;;;5076617;28;20563;-87
2022/09/10 07:49:45;;;;;;;1.73;1.30;;;16.40;99.90;;;;;;5073506;28;20167;-86
2022/09/10 07:52:11;;;;;;;2.60;2.10;;;16.30;99.90;;;;;;5073908;28;20223;-86
2022/09/10 07:54:37;;;;;;;4.07;2.40;;;16.30;99.90;;;;;;5073054;28;20168;-89
2022/09/10 07:57:03;;;;;;;3.23;1.40;;;16.20;99.90;;;;;;5073636;28;20183;-87
2022/09/10 07:59:29;;;;;;;3.03;2.10;;;16.30;99.90;;;;;;5054956;28;20445;-84
2022/09/10 08:01:57;;;;;;;2.20;1.97;;;16.30;99.90;;;;;;5072550;28;20929;-87
2022/09/10 08:04:22;;;;;;;2.80;1.80;;;16.40;99.90;;;;;;5054743;28;20191;-91
2022/09/10 08:06:48;;;;;;;7.57;2.30;;;16.40;99.90;;;;;;5054649;28;20556;-86
2022/09/10 08:09:14;;;;;;;3.10;1.70;;;16.50;99.90;;;;;;5054413;28;20191;-88
2022/09/10 08:11:40;;;;;;;2.73;2.27;;;16.50;99.90;;;;;;5072985;28;20164;-87
2022/09/10 08:14:05;;;;;;;3.83;2.30;;;16.50;99.90;;;;;;5055196;28;20545;-87
2022/09/10 08:16:32;;;;;;;4.00;2.70;;;16.60;99.90;;;;;;5054731;28;20509;-88
2022/09/10 08:18:59;;;;;;;2.40;1.87;;;16.70;99.90;;;;;;5054587;28;20339;-87
2022/09/10 08:21:25;;;;;;;4.33;2.20;;;16.70;99.90;;;;;;5072265;28;20419;-87
2022/09/10 08:23:52;;;;;;;3.40;2.17;;;16.80;99.90;;;;;;5072722;28;20968;-86
2022/09/10 08:26:22;;;;;;;2.57;2.10;;;16.90;99.90;;;;;;5072656;28;20443;-87
2022/09/10 08:28:48;;;;;;;3.30;2.50;;;16.90;99.90;;;;;;5054482;28;20489;-86
2022/09/10 08:31:15;;;;;;;3.60;3.27;;;17.00;99.90;;;;;;5072262;28;21031;-86
2022/09/10 08:33:45;;;;;;;4.10;3.07;;;17.20;99.90;;;;;;5054336;28;20514;-88
2022/09/10 08:36:12;;;;;;;2.80;2.07;;;17.20;99.90;;;;;;5054675;28;20415;-90
2022/09/10 08:38:39;;;;;;;2.63;2.10;;;17.20;99.90;;;;;;5072732;28;20418;-88
2022/09/10 08:41:34;;;;;;;6.40;3.07;;;17.10;99.90;;;;;;5055096;28;20404;-88
2022/09/10 08:44:10;;;;;;;4.07;3.70;;;17.30;99.90;;;;;;5054587;28;20450;-88
2022/09/10 08:46:47;;;;;;;6.50;4.00;;;17.30;99.90;;;;;;5053984;28;20992;-89
2022/09/10 08:49:38;;;;;;;4.40;3.37;;;17.30;99.90;;;;;;5071094;28;20952;-89
2022/09/10 08:52:30;;;;;;;3.20;2.90;;;17.30;99.90;;;;;;5054410;28;20415;-89
2022/09/10 08:55:05;;;;;;;4.20;2.97;;;17.40;99.90;;;;;;5048947;28;20431;-91
2022/09/10 08:57:38;;;;;;;4.63;3.60;;;17.50;99.90;;;;;;5059956;28;20415;-91
2022/09/10 09:00:06;;;;;;;4.30;3.63;;;17.50;99.90;;;;;;5036616;28;20427;-88
2022/09/10 09:02:55;;;;;;;4.90;4.40;;;17.60;99.90;;;;;;5056393;28;20776;-89
2022/09/10 09:05:24;;;;;;;4.63;4.10;;;17.80;99.90;;;;;;5056848;28;20414;-90
2022/09/10 09:07:50;;;;;;;5.70;4.03;;;17.90;99.90;;;;;;5057100;28;20510;-89
2022/09/10 09:10:38;;;;;;;5.90;4.97;;;17.80;99.90;;;;;;5057461;28;20861;-92
2022/09/10 09:13:25;;;;;;;6.50;4.00;;;17.70;99.90;;;;;;5056410;28;20421;-95
2022/09/10 09:16:18;;;;;;;4.93;4.20;;;17.80;99.90;;;;;;5057096;28;20385;-92
2022/09/10 09:19:14;;;;;;;6.10;4.03;;;17.90;99.90;;;;;;5057361;28;20412;-93
2022/09/10 09:21:53;;;;;;;5.07;4.00;;;18.00;99.90;;;;;;5056302;28;20412;-93
2022/09/10 09:24:52;;;;;;;5.13;3.97;;;17.80;99.90;;;;;;5057210;28;20406;-92
2022/09/10 09:27:19;;;;;;;5.37;4.10;;;17.60;99.90;;;;;;5056912;28;20456;-94
2022/09/10 09:30:05;;;;;;;5.27;4.10;;;17.60;99.90;;;;;;5057089;28;20463;-88
2022/09/10 09:32:34;;;;;;;4.30;3.90;;;17.80;99.90;;;;;;5056879;28;20418;-92
2022/09/10 09:35:00;;;;;;;5.90;5.30;;;17.80;99.90;;;;;;5077030;28;20428;-91
2022/09/10 09:37:29;;;;;;;6.33;4.97;;;17.90;99.90;;;;;;5078110;28;20421;-94
2022/09/10 09:40:26;;;;;;;6.03;4.97;;;17.90;99.90;;;;;;5076981;28;20648;-95
2022/09/10 09:42:55;;;;;;;5.33;4.60;;;17.90;99.90;;;;;;5077925;28;20915;-92
2022/09/10 09:45:37;;;;;;;5.27;4.77;;;17.80;99.90;;;;;;5077376;28;20415;-94
2022/09/10 09:48:05;;;;;;;6.80;6.07;;;17.60;99.90;;;;;;5077187;28;20554;-95
2022/09/10 09:50:33;;;;;;;5.27;4.70;;;17.50;99.90;;;;;;5076557;28;20408;-93
2022/09/10 09:52:59;;;;;;;5.13;4.20;;;17.60;99.90;;;;;;5058643;28;20408;-93
2022/09/10 09:55:39;;;;;;;5.63;4.33;;;17.70;99.90;;;;;;5076894;28;20469;-93
2022/09/10 09:58:23;;;;;;;5.73;5.20;;;17.90;99.90;;;;;;5076003;28;20173;-94
2022/09/10 10:01:04;;;;;;;6.43;5.20;;;18.10;99.90;;;;;;5058352;28;20733;-87
2022/09/10 10:03:57;;;;;;;7.60;6.20;;;18.60;99.90;;;;;;5058102;28;20796;-94
2022/09/10 10:06:33;;;;;;;6.50;3.90;;;19.10;99.90;;;;;;5076103;28;20404;-92
2022/09/10 10:09:19;;;;;;;6.80;5.77;;;19.30;99.90;;;;;;5078277;28;20420;-95
2022/09/10 10:12:04;;;;;;;6.57;5.40;;;19.40;99.90;;;;;;5057524;28;20423;-90
2022/09/10 10:14:37;;;;;;;6.37;4.70;;;19.20;99.90;;;;;;5057276;28;20929;-94
2022/09/10 10:17:50;;;;;;;6.33;5.00;;;19.30;99.90;;;;;;5076188;28;20422;-94
2022/09/10 10:20:15;;;;;;;5.23;4.60;;;19.10;99.90;;;;;;5058361;28;20479;-90
2022/09/10 10:22:47;;;;;;;6.03;5.43;;;19.10;99.90;;;;;;5058273;28;20819;-91
2022/09/10 10:25:37;;;;;;;5.50;4.80;;;18.90;99.90;;;;;;5075891;28;20172;-93
2022/09/10 10:28:12;;;;;;;5.60;5.00;;;18.90;99.90;;;;;;5075485;28;21008;-89
2022/09/10 10:30:38;;;;;;;6.23;5.60;;;18.80;99.90;;;;;;5076339;28;20457;-91
2022/09/10 10:33:04;;;;;;;7.53;5.77;;;18.80;99.90;;;;;;5075611;28;20420;-91
2022/09/10 10:35:44;;;;;;;6.57;5.97;;;18.80;99.90;;;;;;5075634;28;20171;-92
2022/09/10 10:38:44;;;;;;;8.00;4.70;;;18.90;99.90;;;;;;5075193;28;20254;-93
2022/09/10 10:41:34;;;;;;;5.70;4.73;;;18.90;99.90;;;;;;5074377;28;20525;-90
2022/09/10 10:44:12;;;;;;;7.13;5.53;;;19.00;99.90;;;;;;5076883;28;20407;-92
2022/09/10 10:46:57;;;;;;;7.00;6.30;;;19.20;99.90;;;;;;5075984;28;20899;-92
2022/09/10 10:49:43;;;;;;;6.10;5.33;;;19.20;99.90;;;;;;5058047;28;20425;-93
2022/09/10 10:52:24;;;;;;;6.27;5.67;;;19.30;99.90;;;;;;5074346;28;20419;-92
2022/09/10 10:55:09;;;;;;;5.70;4.63;;;19.40;99.90;;;;;;5075688;28;20493;-91
2022/09/10 10:57:45;;;;;;;5.17;4.73;;;19.70;99.90;;;;;;5075052;28;20445;-87
2022/09/10 11:00:14;;;;;;;5.33;4.57;;;20.00;99.90;;;;;;5075808;28;20410;-89
2022/09/10 11:02:56;;;;;;;6.07;4.83;;;20.20;99.90;;;;;;5074559;28;20422;-90
2022/09/10 11:05:37;;;;;;;4.70;3.83;;;20.50;99.90;;;;;;5075546;28;20877;-90
2022/09/10 11:08:13;;;;;;;4.57;4.17;;;20.90;99.90;;;;;;5075369;28;20830;-91
2022/09/10 11:10:45;;;;;;;4.83;4.27;;;21.30;99.90;;;;;;5075303;28;20407;-90
2022/09/10 11:13:26;;;;;;;5.27;3.97;;;21.60;3.30;;;;;;5075670;28;20996;-92
2022/09/10 11:16:03;;;;;;;6.83;4.20;;;22.00;99.90;;;;;;5075113;28;20406;-90
2022/09/10 11:18:46;;;;;;;4.37;2.80;;;21.90;1.00;;;;;;5073985;28;20923;-90
2022/09/10 11:21:34;;;;;;;5.43;3.63;;;22.20;99.90;;;;;;5057519;28;20419;-91
2022/09/10 11:24:07;;;;;;;3.50;3.07;;;22.50;75.10;;;;;;5074045;28;20418;-89
2022/09/10 11:26:40;;;;;;;4.50;2.83;;;22.90;99.90;;;;;;5073990;28;20954;-91
2022/09/10 11:29:32;;;;;;;3.40;3.07;;;22.70;1.00;;;;;;5074895;28;20508;-91
2022/09/10 11:32:15;;;;;;;3.13;2.33;;;23.00;99.90;;;;;;5074786;28;20922;-90
2022/09/10 11:35:08;;;;;;;3.43;2.60;;;23.50;1.00;;;;;;5074099;28;21012;-87
2022/09/10 11:37:37;;;;;;;3.00;2.73;;;24.00;99.90;;;;;;5073324;28;20435;-92
2022/09/10 11:40:12;;;;;;;3.30;2.80;;;24.30;99.90;;;;;;5075233;28;20412;-91
2022/09/10 11:42:44;;;;;;;4.10;2.20;;;23.80;99.90;;;;;;5074721;28;20407;-90
2022/09/10 11:45:18;;;;;;;2.60;2.30;;;23.80;99.90;;;;;;5073998;28;20467;-91
2022/09/10 11:47:59;;;;;;;2.03;1.83;;;23.30;1.00;;;;;;5074729;28;20463;-90
2022/09/10 11:50:50;;;;;;;3.10;2.27;;;22.50;1.00;;;;;;5074071;28;20762;-91
2022/09/10 11:53:17;;;;;;;2.53;2.10;;;21.90;99.90;;;;;;5074761;28;20452;-91
2022/09/10 11:56:30;;;;;;;2.83;1.73;;;21.30;99.90;;;;;;5056764;28;20411;-92
2022/09/10 11:59:09;;;;;;;2.20;2.00;;;21.00;99.90;;;;;;4993045;28;20426;-90
2022/09/10 12:01:35;;;;;;;3.17;2.20;;;21.50;99.90;;;;;;5064719;28;20462;-89
2022/09/10 12:04:33;;;;;;;1.60;1.33;;;22.40;1.00;;;;;;5073976;28;20420;-87
2022/09/10 12:07:17;;;;;;;1.80;1.40;;;22.90;25.20;;;;;;5073756;28;20200;-91
2022/09/10 12:10:06;;;;;;;2.47;1.63;;;23.30;99.90;;;;;;5073555;28;20852;-90
2022/09/10 12:12:34;;;;;;;3.40;1.70;;;23.20;1.00;;;;;;5073438;28;20486;-89
2022/09/10 12:15:00;;;;;;;1.60;1.47;;;23.50;1.80;;;;;;5054884;28;20911;-88
2022/09/10 12:17:35;;;;;;;2.03;1.10;;;23.10;99.90;;;;;;5054298;28;20415;-89
2022/09/10 12:20:04;;;;;;;2.20;1.50;;;23.50;1.00;;;;;;5071930;28;20683;-88
2022/09/10 12:22:37;;;;;;;1.87;1.57;;;24.30;1.00;;;;;;5072396;28;20410;-89
2022/09/10 12:25:22;;;;;;;1.80;1.50;;;24.70;99.90;;;;;;5072949;28;20830;-91
2022/09/10 12:27:55;;;;;;;3.77;1.93;;;24.70;99.90;;;;;;5073018;28;20498;-88
2022/09/10 12:30:24;;;;;;;2.10;1.57;;;23.10;99.90;;;;;;5072771;28;20455;-89
2022/09/10 12:32:54;;;;;;;1.77;1.60;;;22.20;1.00;;;;;;5055074;28;20426;-89
2022/09/10 12:35:33;;;;;;;1.97;1.17;;;21.70;99.90;;;;;;5057263;28;20755;-90
2022/09/10 12:38:36;;;;;;;2.17;1.60;;;21.50;99.90;;;;;;5060050;28;20510;-90
2022/09/10 12:41:09;;;;;;;1.60;1.13;;;21.30;1.00;;;;;;5077713;28;20446;-89
2022/09/10 12:43:58;;;;;;;2.20;0.90;;;22.10;1.00;;;;;;5078107;28;20415;-91
2022/09/10 12:46:25;;;;;;;2.30;1.00;;;22.50;1.00;;;;;;5078180;28;20410;-91
2022/09/10 12:49:08;;;;;;;1.57;1.17;;;23.60;99.90;;;;;;5077248;28;20494;-91
2022/09/10 12:51:45;;;;;;;1.47;1.03;;;24.60;1.00;;;;;;5059992;28;20422;-91
2022/09/10 12:54:41;;;;;;;2.23;1.30;;;23.50;99.90;;;;;;5060867;28;20426;-89
2022/09/10 12:57:26;;;;;;;2.17;1.07;;;22.30;99.90;;;;;;5078082;28;20895;-89
2022/09/10 13:00:01;;;;;;;2.03;1.13;;;22.90;99.90;;;;;;5077233;28;20460;-86
2022/09/10 13:02:52;;;;;;;1.80;0.80;;;23.00;78.60;;;;;;5077399;28;20956;-88
2022/09/10 13:05:17;;;;;;;2.10;0.90;;;23.50;99.90;;;;;;5076167;28;20449;-85
2022/09/10 13:07:45;;;;;;;2.50;1.13;;;24.20;1.00;;;;;;5059080;28;20415;-87
2022/09/10 13:10:22;;;;;;;1.90;1.20;;;24.40;99.90;;;;;;5076273;28;20180;-89
2022/09/10 13:12:53;;;;;;;1.50;1.27;;;24.60;99.90;;;;;;5076792;28;20481;-88